Overview Statistics Trail Chart Weather Telemetry Raw packets
 

This is the latest recevied weather packets stored in our database for station/object WX5KDM. If no packets are shown the sender has not sent any weather packets the latest 10 day(s).

<< 93 94 95 96 97 98 99 >>
Time Temp. Humidity Pressure Rain* Wind** Luminosity Snow
1787928265 27.78° C 72% 1019.3 hPa 0 mm - - -
1787927964 27.78° C 72% 1019.4 hPa 0 mm - - -
1787927659 27.78° C 73% 1019.3 hPa 0 mm - - -
1787927354 27.22° C 76% 1019.2 hPa 0 mm - - -
1787927049 26.67° C 77% 1019.2 hPa 0 mm - - -
1787926744 26.67° C 77% 1019.1 hPa 0 mm - - -
1787926443 26.67° C 77% 1019.1 hPa 0 mm - - -
1787926143 27.22° C 76% 1019.3 hPa 0 mm - - -
1787925842 26.67° C 80% 1019.2 hPa 0 mm - - -
1787925541 26.67° C 79% 1019.2 hPa 0 mm - - -
1787925236 26.11° C 80% 1019.1 hPa 0 mm - - -
1787924936 25.56° C 81% 1019.1 hPa 0 mm - - -
1787924636 25° C 83% 1019.1 hPa 0 mm - - -
1787924331 25° C 82% 1019 hPa 0 mm - - -
1787924026 25° C 84% 1019.1 hPa 0 mm - - -
1787923720 24.44° C 85% 1018.9 hPa 0 mm - - -
1787923416 24.44° C 84% 1018.9 hPa 0 mm - - -
1787923113 24.44° C 87% 1019 hPa 0 mm - - -
1787922806 23.89° C 87% 1019 hPa 0 mm - - -
1787922499 23.33° C 92% 1018.8 hPa 0 mm - - -
1787922199 23.33° C 93% 1019 hPa 0 mm - - -
1787921896 22.78° C 99% 1019 hPa 0 mm - - -
1787921591 22.78° C 99% 1018.9 hPa 0 mm - - -
1787921290 22.22° C 99% 1018.8 hPa 0 mm - - -
1787920986 22.22° C 99% 1018.9 hPa 0 mm - - -

* Rain latest hour (hover to see other rain measurements)
** Current wind speed in m/s (hover to see current wind gust speed)